createdAt,value
2022-12-18T00:00:45.236Z,16.33
2022-12-18T00:03:12.114Z,15.00
2022-12-18T00:05:38.679Z,15.32
2022-12-18T00:08:09.423Z,15.55
2022-12-18T00:10:36.455Z,14.98
2022-12-18T00:13:05.277Z,15.10
2022-12-18T00:15:35.963Z,15.70
2022-12-18T00:18:02.192Z,16.45
2022-12-18T00:20:28.762Z,15.73
2022-12-18T00:22:55.186Z,14.93
2022-12-18T00:25:21.836Z,15.73
2022-12-18T00:27:48.297Z,16.90
2022-12-18T00:30:15.005Z,15.10
2022-12-18T00:32:41.280Z,16.13
2022-12-18T00:35:07.975Z,16.23
2022-12-18T00:37:34.337Z,14.55
2022-12-18T00:40:00.832Z,15.93
2022-12-18T00:42:27.338Z,15.48
2022-12-18T00:44:53.850Z,15.23
2022-12-18T00:47:20.092Z,14.85
2022-12-18T00:49:46.563Z,15.88
2022-12-18T00:52:12.843Z,15.30
2022-12-18T00:54:39.099Z,15.65
2022-12-18T00:57:05.586Z,14.10
2022-12-18T00:59:35.066Z,15.52
2022-12-18T01:02:01.586Z,15.15
2022-12-18T01:04:28.012Z,14.75
2022-12-18T01:06:54.270Z,14.93
2022-12-18T01:09:20.653Z,15.27
2022-12-18T01:11:47.150Z,14.55
2022-12-18T01:14:13.710Z,13.80
2022-12-18T01:16:40.051Z,14.75
2022-12-18T01:19:07.015Z,15.20
2022-12-18T01:21:33.359Z,14.95
2022-12-18T01:23:59.783Z,14.38
2022-12-18T01:26:25.964Z,14.00
2022-12-18T01:28:52.501Z,13.52
2022-12-18T01:31:19.045Z,14.65
2022-12-18T01:33:45.261Z,15.20
2022-12-18T01:36:11.829Z,13.75
2022-12-18T01:38:40.460Z,15.35
2022-12-18T01:41:06.862Z,14.60
2022-12-18T01:43:34.479Z,14.68
2022-12-18T01:46:00.884Z,14.95
2022-12-18T01:48:27.310Z,16.05
2022-12-18T01:50:53.462Z,15.30
2022-12-18T01:53:19.906Z,14.85
2022-12-18T01:55:46.131Z,15.30
2022-12-18T01:58:12.906Z,14.57
2022-12-18T02:00:39.605Z,14.43
2022-12-18T02:03:05.980Z,16.02
2022-12-18T02:05:32.267Z,15.38
2022-12-18T02:07:58.580Z,17.00
2022-12-18T02:10:24.993Z,17.50
2022-12-18T02:12:51.377Z,16.08
2022-12-18T02:15:18.200Z,17.27
2022-12-18T02:17:44.410Z,16.30
2022-12-18T02:20:10.896Z,17.73
2022-12-18T02:22:37.173Z,16.27
2022-12-18T02:25:03.451Z,18.25
2022-12-18T02:27:29.640Z,17.58
2022-12-18T02:29:58.522Z,15.07
2022-12-18T02:32:25.816Z,16.45
2022-12-18T02:34:52.368Z,17.35
2022-12-18T02:37:18.757Z,16.48
2022-12-18T02:39:45.027Z,17.48
2022-12-18T02:42:11.625Z,17.02
2022-12-18T02:44:37.818Z,16.17
2022-12-18T02:47:04.225Z,16.40
2022-12-18T02:49:30.417Z,16.90
2022-12-18T02:51:56.913Z,17.52
2022-12-18T02:54:23.068Z,15.38
2022-12-18T02:56:49.438Z,16.00
2022-12-18T02:59:15.980Z,16.95
2022-12-18T03:01:43.199Z,17.50
2022-12-18T03:04:09.886Z,17.15
2022-12-18T03:06:36.170Z,16.58
2022-12-18T03:09:02.371Z,16.25
2022-12-18T03:11:28.738Z,16.70
2022-12-18T03:13:55.168Z,16.48
2022-12-18T03:16:21.848Z,17.35
2022-12-18T03:18:48.358Z,17.20
2022-12-18T03:21:14.754Z,15.90
2022-12-18T03:23:41.646Z,17.13
2022-12-18T03:26:09.136Z,17.75
2022-12-18T03:28:35.780Z,16.80
2022-12-18T03:31:02.827Z,17.17
2022-12-18T03:33:29.450Z,17.77
2022-12-18T03:35:56.726Z,16.23
2022-12-18T03:38:24.958Z,17.08
2022-12-18T03:40:51.396Z,16.70
2022-12-18T03:43:17.635Z,17.23
2022-12-18T03:45:44.107Z,17.50
2022-12-18T03:48:10.793Z,17.65
2022-12-18T03:50:37.667Z,17.55
2022-12-18T03:53:04.281Z,16.73
2022-12-18T03:55:30.503Z,16.50
2022-12-18T03:57:56.943Z,17.52
2022-12-18T04:00:23.374Z,18.05
2022-12-18T04:02:50.463Z,17.38
2022-12-18T04:05:19.820Z,16.83
2022-12-18T04:07:50.280Z,16.50
2022-12-18T04:10:29.195Z,17.02
2022-12-18T04:12:56.820Z,17.15
2022-12-18T04:15:24.038Z,18.50
2022-12-18T04:17:50.387Z,16.08
2022-12-18T04:20:16.753Z,17.55
2022-12-18T04:22:43.233Z,16.88
2022-12-18T04:25:09.733Z,17.95
2022-12-18T04:27:36.678Z,17.02
2022-12-18T04:30:02.893Z,17.40
2022-12-18T04:32:29.061Z,17.48
2022-12-18T04:34:55.435Z,15.40
2022-12-18T04:37:21.774Z,17.02
2022-12-18T04:39:48.354Z,15.85
2022-12-18T04:42:14.551Z,15.90
2022-12-18T04:44:41.338Z,15.02
2022-12-18T04:47:07.571Z,15.30
2022-12-18T04:49:33.781Z,17.05
2022-12-18T04:52:00.082Z,15.02
2022-12-18T04:54:26.320Z,14.43
2022-12-18T04:56:52.646Z,15.82
2022-12-18T04:59:19.660Z,14.90
2022-12-18T05:01:46.015Z,15.00
2022-12-18T05:04:12.290Z,14.52
2022-12-18T05:06:38.480Z,14.68
2022-12-18T05:09:04.817Z,14.13
2022-12-18T05:11:32.117Z,14.13
2022-12-18T05:13:58.239Z,13.88
2022-12-18T05:16:24.409Z,14.43
2022-12-18T05:18:50.610Z,14.35
2022-12-18T05:21:16.704Z,14.13
2022-12-18T05:23:43.373Z,14.60
2022-12-18T05:26:09.820Z,15.35
2022-12-18T05:28:35.959Z,14.23
2022-12-18T05:31:02.225Z,13.88
2022-12-18T05:33:28.394Z,13.38
2022-12-18T05:35:54.536Z,13.45
2022-12-18T05:38:20.646Z,13.52
2022-12-18T05:40:46.763Z,13.15
2022-12-18T05:43:16.591Z,14.10
2022-12-18T05:48:13.249Z,12.02
2022-12-18T05:50:39.391Z,12.90
2022-12-18T05:53:05.597Z,14.40
2022-12-18T05:55:31.764Z,13.80
2022-12-18T05:57:57.895Z,13.48
2022-12-18T06:00:24.019Z,14.63
2022-12-18T06:02:50.208Z,13.20
2022-12-18T06:05:16.421Z,13.57
2022-12-18T06:07:42.529Z,14.20
2022-12-18T06:10:08.627Z,13.55
2022-12-18T06:12:34.766Z,13.27
2022-12-18T06:15:00.864Z,12.77
2022-12-18T06:17:26.985Z,12.77
2022-12-18T06:19:53.091Z,13.68
2022-12-18T06:22:19.225Z,13.18
2022-12-18T06:24:45.321Z,14.68
2022-12-18T06:27:11.450Z,14.85
2022-12-18T06:29:37.564Z,13.43
2022-12-18T06:32:03.780Z,13.25
2022-12-18T06:34:29.911Z,13.00
2022-12-18T06:36:56.030Z,13.43
2022-12-18T06:39:22.132Z,13.60
2022-12-18T06:41:48.235Z,12.32
2022-12-18T06:44:14.335Z,13.13
2022-12-18T06:46:40.443Z,13.88
2022-12-18T06:49:07.910Z,12.48
2022-12-18T06:51:34.025Z,14.05
2022-12-18T06:54:00.123Z,12.80
2022-12-18T06:56:26.252Z,13.18
2022-12-18T06:58:52.342Z,12.00
2022-12-18T07:01:18.519Z,12.57
2022-12-18T07:03:45.372Z,13.57
2022-12-18T07:06:11.847Z,13.50
2022-12-18T07:08:38.165Z,13.75
2022-12-18T07:11:04.275Z,13.52
2022-12-18T07:13:30.385Z,13.93
2022-12-18T07:15:56.516Z,13.70
2022-12-18T07:18:22.713Z,13.38
2022-12-18T07:20:48.819Z,12.70
2022-12-18T07:23:15.172Z,13.27
2022-12-18T07:25:41.271Z,13.82
2022-12-18T07:28:08.216Z,12.63
2022-12-18T07:30:35.740Z,13.77
2022-12-18T07:33:01.862Z,13.18
2022-12-18T07:35:27.969Z,12.88
2022-12-18T07:37:54.095Z,12.35
2022-12-18T07:40:20.257Z,11.73
2022-12-18T07:42:46.363Z,12.65
2022-12-18T07:45:12.463Z,12.57
2022-12-18T07:47:38.582Z,12.73
2022-12-18T07:50:04.674Z,12.15
2022-12-18T07:52:30.771Z,12.82
2022-12-18T07:54:57.125Z,13.10
2022-12-18T07:57:48.794Z,12.70
2022-12-18T08:00:09.335Z,12.77
2022-12-18T08:02:35.510Z,13.68
2022-12-18T08:05:01.765Z,12.68
2022-12-18T08:07:27.880Z,12.55
2022-12-18T08:09:54.070Z,14.02
2022-12-18T08:12:20.501Z,12.90
2022-12-18T08:14:46.703Z,12.45
2022-12-18T08:17:12.806Z,11.77
2022-12-18T08:19:38.932Z,12.45
2022-12-18T08:22:05.051Z,12.02
2022-12-18T08:24:31.203Z,10.65
2022-12-18T08:27:27.837Z,11.35
2022-12-18T08:29:45.625Z,12.20
2022-12-18T08:32:12.007Z,11.93
2022-12-18T08:34:38.409Z,12.57
2022-12-18T08:37:04.722Z,12.20
2022-12-18T08:39:30.912Z,11.73
2022-12-18T08:41:57.699Z,12.57
2022-12-18T08:44:24.331Z,11.82
2022-12-18T08:46:50.724Z,10.60
2022-12-18T08:49:16.938Z,11.48
2022-12-18T08:51:43.242Z,12.80
2022-12-18T08:54:09.495Z,11.40
2022-12-18T08:56:35.762Z,11.45
2022-12-18T08:59:02.303Z,11.90
2022-12-18T09:01:28.605Z,11.43
2022-12-18T09:03:54.963Z,11.05
2022-12-18T09:06:21.206Z,11.98
2022-12-18T09:08:47.375Z,12.20
2022-12-18T09:11:13.646Z,11.02
2022-12-18T09:13:40.110Z,12.05
2022-12-18T09:16:06.527Z,12.35
2022-12-18T09:18:32.699Z,11.27
2022-12-18T09:20:58.921Z,12.52
2022-12-18T09:23:25.312Z,11.82
2022-12-18T09:25:51.787Z,12.20
2022-12-18T09:28:17.968Z,12.25
2022-12-18T09:30:44.244Z,11.82
2022-12-18T09:33:10.732Z,11.40
2022-12-18T09:35:36.964Z,11.57
2022-12-18T09:38:03.405Z,10.77
2022-12-18T09:40:32.745Z,11.77
2022-12-18T09:43:04.782Z,11.55
2022-12-18T09:45:46.336Z,11.38
2022-12-18T09:48:13.793Z,11.32
2022-12-18T09:50:39.969Z,11.32
2022-12-18T09:53:06.182Z,11.73
2022-12-18T09:55:37.438Z,11.63
2022-12-18T09:58:13.175Z,11.75
2022-12-18T10:00:39.308Z,12.70
2022-12-18T10:03:05.781Z,12.07
2022-12-18T10:05:32.061Z,11.65
2022-12-18T10:07:58.188Z,13.40
2022-12-18T10:10:24.297Z,11.43
2022-12-18T10:12:50.456Z,11.57
2022-12-18T10:15:16.598Z,12.15
2022-12-18T10:17:42.815Z,11.48
2022-12-18T10:20:09.144Z,12.25
2022-12-18T10:22:35.317Z,12.20
2022-12-18T10:25:01.606Z,12.32
2022-12-18T10:27:27.814Z,11.63
2022-12-18T10:29:54.188Z,13.13
2022-12-18T10:32:20.342Z,11.95
2022-12-18T10:34:46.468Z,11.98
2022-12-18T10:37:12.627Z,11.68
2022-12-18T10:39:38.776Z,11.57
2022-12-18T10:42:05.053Z,11.68
2022-12-18T10:44:31.234Z,11.20
2022-12-18T10:46:57.474Z,11.93
2022-12-18T10:49:23.717Z,11.85
2022-12-18T10:51:49.914Z,12.00
2022-12-18T10:54:16.104Z,11.80
2022-12-18T10:56:42.284Z,11.18
2022-12-18T10:59:10.440Z,11.65
2022-12-18T11:01:36.688Z,11.70
2022-12-18T11:04:03.143Z,11.50
2022-12-18T11:06:29.379Z,11.43
2022-12-18T11:08:55.506Z,10.63
2022-12-18T11:11:21.742Z,11.02
2022-12-18T11:13:47.955Z,12.10
2022-12-18T11:16:14.330Z,10.25
2022-12-18T11:18:40.934Z,11.05
2022-12-18T11:21:07.474Z,10.73
2022-12-18T11:23:33.784Z,10.95
2022-12-18T11:26:06.062Z,10.55
2022-12-18T11:28:32.248Z,11.02
2022-12-18T11:30:58.582Z,11.00
2022-12-18T11:33:24.818Z,11.18
2022-12-18T11:35:51.155Z,10.98
2022-12-18T11:38:17.352Z,10.82
2022-12-18T11:40:43.514Z,11.63
2022-12-18T11:43:09.621Z,11.00
2022-12-18T11:45:35.873Z,11.50
2022-12-18T11:48:02.540Z,11.43
2022-12-18T11:50:29.304Z,10.85
2022-12-18T11:52:59.263Z,11.45
2022-12-18T11:55:27.693Z,11.43
2022-12-18T11:57:53.815Z,11.15
2022-12-18T12:00:19.912Z,11.55
2022-12-18T12:02:46.183Z,11.98
2022-12-18T12:05:12.428Z,10.55
2022-12-18T12:07:38.551Z,11.00
2022-12-18T12:10:04.663Z,11.57
2022-12-18T12:12:30.773Z,10.70
2022-12-18T12:14:56.874Z,10.88
2022-12-18T12:17:24.101Z,10.70
2022-12-18T12:19:50.211Z,10.02
2022-12-18T12:22:16.341Z,11.80
2022-12-18T12:24:42.445Z,10.57
2022-12-18T12:27:08.563Z,10.95
2022-12-18T12:29:34.666Z,11.90
2022-12-18T12:32:00.815Z,11.40
2022-12-18T12:34:26.968Z,10.80
2022-12-18T12:36:53.096Z,10.63
2022-12-18T12:39:19.228Z,10.75
2022-12-18T12:41:45.327Z,10.70
2022-12-18T12:44:11.457Z,11.13
2022-12-18T12:46:37.560Z,10.43
2022-12-18T12:49:04.050Z,11.32
2022-12-18T12:51:30.147Z,10.02
2022-12-18T12:53:56.263Z,10.48
2022-12-18T12:56:22.724Z,10.65
2022-12-18T12:58:49.401Z,11.07
2022-12-18T13:01:19.913Z,10.45
2022-12-18T13:03:49.601Z,10.27
2022-12-18T13:06:16.589Z,9.43
2022-12-18T13:08:42.708Z,10.55
2022-12-18T13:11:08.824Z,10.35
2022-12-18T13:13:35.120Z,12.68
2022-12-18T13:16:01.249Z,10.43
2022-12-18T13:18:27.370Z,10.05
2022-12-18T13:23:39.922Z,10.80
2022-12-18T13:26:06.962Z,10.05
2022-12-18T13:28:33.208Z,11.88
2022-12-18T13:30:59.409Z,10.15
2022-12-18T13:33:25.524Z,11.40
2022-12-18T13:35:51.726Z,10.57
2022-12-18T13:38:18.016Z,11.05
2022-12-18T13:40:47.784Z,10.35
2022-12-18T13:43:14.004Z,10.35
2022-12-18T13:45:40.121Z,10.10
2022-12-18T13:48:07.260Z,10.30
2022-12-18T13:50:36.059Z,9.98
2022-12-18T13:53:02.435Z,10.75
2022-12-18T13:55:28.965Z,10.13
2022-12-18T13:57:55.076Z,10.23
2022-12-18T14:00:22.415Z,10.20
2022-12-18T14:02:48.888Z,9.43
2022-12-18T14:05:15.059Z,10.93
2022-12-18T14:07:46.545Z,10.60
2022-12-18T14:10:44.388Z,10.45
2022-12-18T14:13:03.306Z,11.30
2022-12-18T14:15:29.865Z,10.65
2022-12-18T14:17:56.861Z,10.85
2022-12-18T14:20:22.961Z,11.13
2022-12-18T14:22:49.072Z,10.02
2022-12-18T14:25:15.166Z,9.38
2022-12-18T14:27:41.319Z,10.93
2022-12-18T14:30:07.440Z,10.18
2022-12-18T14:32:33.591Z,10.48
2022-12-18T14:34:59.709Z,11.43
2022-12-18T14:37:25.846Z,10.50
2022-12-18T14:39:51.966Z,10.95
2022-12-18T14:42:18.091Z,10.38
2022-12-18T14:45:12.863Z,11.15
2022-12-18T14:47:30.325Z,10.27
2022-12-18T14:49:56.424Z,11.18
2022-12-18T14:52:22.556Z,11.43
2022-12-18T14:54:49.360Z,11.38
2022-12-18T14:57:15.556Z,10.55
2022-12-18T14:59:41.731Z,12.13
2022-12-18T15:02:07.983Z,12.23
2022-12-18T15:04:34.189Z,11.05
2022-12-18T15:07:00.360Z,11.18
2022-12-18T15:09:26.495Z,10.60
2022-12-18T15:11:52.649Z,10.15
2022-12-18T15:14:18.785Z,11.63
2022-12-18T15:16:46.297Z,11.02
2022-12-18T15:19:12.530Z,11.13
2022-12-18T15:21:38.668Z,11.52
2022-12-18T15:24:04.798Z,11.60
2022-12-18T15:26:30.944Z,11.20
2022-12-18T15:28:57.257Z,11.45
2022-12-18T15:31:23.425Z,10.80
2022-12-18T15:33:49.632Z,11.75
2022-12-18T15:36:16.553Z,11.38
2022-12-18T15:38:45.552Z,10.32
2022-12-18T15:41:14.137Z,11.13
2022-12-18T15:43:40.860Z,11.40
2022-12-18T15:46:07.344Z,10.85
2022-12-18T15:48:33.489Z,11.15
2022-12-18T15:50:59.638Z,11.25
2022-12-18T15:53:25.762Z,10.75
2022-12-18T15:55:54.239Z,11.70
2022-12-18T15:58:22.629Z,10.35
2022-12-18T16:00:48.938Z,11.88
2022-12-18T16:03:15.258Z,11.05
2022-12-18T16:05:41.557Z,10.55
2022-12-18T16:08:07.667Z,11.27
2022-12-18T16:10:33.781Z,11.98
2022-12-18T16:12:59.881Z,12.13
2022-12-18T16:15:26.091Z,12.57
2022-12-18T16:17:52.212Z,11.68
2022-12-18T16:20:18.320Z,12.05
2022-12-18T16:25:25.809Z,11.95
2022-12-18T16:27:51.995Z,11.82
2022-12-18T16:30:18.146Z,12.07
2022-12-18T16:32:44.251Z,11.57
2022-12-18T16:35:10.392Z,12.55
2022-12-18T16:37:36.503Z,12.25
2022-12-18T16:40:02.641Z,12.23
2022-12-18T16:42:28.751Z,11.95
2022-12-18T16:44:54.858Z,12.48
2022-12-18T16:47:20.984Z,12.23
2022-12-18T16:49:47.082Z,12.50
2022-12-18T16:52:13.207Z,12.23
2022-12-18T16:54:39.312Z,12.30
2022-12-18T16:57:05.542Z,12.65
2022-12-18T16:59:31.722Z,12.02
2022-12-18T17:01:58.360Z,12.15
2022-12-18T17:04:24.615Z,12.20
2022-12-18T17:06:50.735Z,12.35
2022-12-18T17:09:16.840Z,12.30
2022-12-18T17:11:42.970Z,12.73
2022-12-18T17:14:09.087Z,13.27
2022-12-18T17:16:35.239Z,12.85
2022-12-18T17:19:01.851Z,12.90
2022-12-18T17:21:27.954Z,13.30
2022-12-18T17:23:54.078Z,12.07
2022-12-18T17:26:20.176Z,13.43
2022-12-18T17:28:46.332Z,12.48
2022-12-18T17:31:12.481Z,13.05
2022-12-18T17:33:39.083Z,12.90
2022-12-18T17:36:05.349Z,12.32
2022-12-18T17:38:31.618Z,13.85
2022-12-18T17:40:57.756Z,14.18
2022-12-18T17:43:23.894Z,14.57
2022-12-18T17:45:50.001Z,13.48
2022-12-18T17:48:16.119Z,13.45
2022-12-18T17:50:42.224Z,11.98
2022-12-18T17:53:08.336Z,13.30
2022-12-18T17:55:34.440Z,12.52
2022-12-18T17:58:00.587Z,13.85
2022-12-18T18:00:26.701Z,12.13
2022-12-18T18:02:53.050Z,13.80
2022-12-18T18:05:19.534Z,12.40
2022-12-18T18:07:45.652Z,14.13
2022-12-18T18:10:11.910Z,15.23
2022-12-18T18:12:38.107Z,13.20
2022-12-18T18:15:04.372Z,12.80
2022-12-18T18:17:33.716Z,13.98
2022-12-18T18:19:59.858Z,14.32
2022-12-18T18:22:26.018Z,12.52
2022-12-18T18:24:52.136Z,13.40
2022-12-18T18:27:18.336Z,13.15
2022-12-18T18:29:44.670Z,13.82
2022-12-18T18:32:10.816Z,14.57
2022-12-18T18:34:37.059Z,13.63
2022-12-18T18:37:03.162Z,13.88
2022-12-18T18:39:29.333Z,13.95
2022-12-18T18:41:55.544Z,13.77
2022-12-18T18:44:22.837Z,14.38
2022-12-18T18:46:52.267Z,14.70
2022-12-18T18:49:18.408Z,12.63
2022-12-18T18:51:44.749Z,15.05
2022-12-18T18:54:10.854Z,15.50
2022-12-18T18:57:04.008Z,15.07
2022-12-18T18:59:26.799Z,14.25
2022-12-18T19:01:58.157Z,14.48
2022-12-18T19:04:24.384Z,14.63
2022-12-18T19:06:50.706Z,14.32
2022-12-18T19:09:16.942Z,14.43
2022-12-18T19:11:43.313Z,14.30
2022-12-18T19:14:09.449Z,15.07
2022-12-18T19:16:37.902Z,14.90
2022-12-18T19:19:04.332Z,14.18
2022-12-18T19:21:31.388Z,14.73
2022-12-18T19:24:00.269Z,14.68
2022-12-18T19:26:28.458Z,13.30
2022-12-18T19:28:55.076Z,13.57
2022-12-18T19:31:24.976Z,13.82
2022-12-18T19:33:53.289Z,14.23
2022-12-18T19:36:19.499Z,14.23
2022-12-18T19:38:45.852Z,14.35
2022-12-18T19:41:12.221Z,15.15
2022-12-18T19:43:41.718Z,14.55
2022-12-18T19:46:07.889Z,14.18
2022-12-18T19:48:34.275Z,15.38
2022-12-18T19:51:00.406Z,14.07
2022-12-18T19:53:26.588Z,15.25
2022-12-18T19:55:55.880Z,14.23
2022-12-18T19:58:22.001Z,13.88
2022-12-18T20:00:49.310Z,13.80
2022-12-18T20:03:23.461Z,14.50
2022-12-18T20:05:51.856Z,13.70
2022-12-18T20:08:18.244Z,14.70
2022-12-18T20:10:44.366Z,13.85
2022-12-18T20:13:10.693Z,14.30
2022-12-18T20:15:45.154Z,14.63
2022-12-18T20:18:11.859Z,14.60
2022-12-18T20:20:38.099Z,14.13
2022-12-18T20:23:04.364Z,13.93
2022-12-18T20:25:33.213Z,14.20
2022-12-18T20:27:59.443Z,13.90
2022-12-18T20:30:25.603Z,13.98
2022-12-18T20:32:51.709Z,15.18
2022-12-18T20:35:17.905Z,14.38
2022-12-18T20:37:48.758Z,14.35
2022-12-18T20:40:17.039Z,14.70
2022-12-18T20:42:43.141Z,13.85
2022-12-18T20:45:09.269Z,14.38
2022-12-18T20:47:35.402Z,14.45
2022-12-18T20:50:01.583Z,14.68
2022-12-18T20:52:27.701Z,14.52
2022-12-18T20:54:53.819Z,14.77
2022-12-18T20:57:19.928Z,13.75
2022-12-18T20:59:48.324Z,13.82
2022-12-18T21:02:14.830Z,14.70
2022-12-18T21:04:41.024Z,14.55
2022-12-18T21:07:07.134Z,14.00
2022-12-18T21:09:33.294Z,15.68
2022-12-18T21:12:04.612Z,13.80
2022-12-18T21:14:30.748Z,14.38
2022-12-18T21:16:56.962Z,14.85
2022-12-18T21:19:23.129Z,14.82
2022-12-18T21:21:49.262Z,14.27
2022-12-18T21:24:15.475Z,14.57
2022-12-18T21:26:45.362Z,13.75
2022-12-18T21:29:12.127Z,13.80
2022-12-18T21:31:38.503Z,13.98
2022-12-18T21:34:04.613Z,14.98
2022-12-18T21:36:31.892Z,15.07
2022-12-18T21:38:58.414Z,14.52
2022-12-18T21:41:24.784Z,14.23
2022-12-18T21:43:51.052Z,13.75
2022-12-18T21:46:17.207Z,15.00
2022-12-18T21:48:43.348Z,14.30
2022-12-18T21:51:09.463Z,14.93
2022-12-18T21:53:35.610Z,15.10
2022-12-18T21:56:01.726Z,15.32
2022-12-18T21:58:27.842Z,15.65
2022-12-18T22:00:53.988Z,15.90
2022-12-18T22:03:20.185Z,14.85
2022-12-18T22:05:46.384Z,15.18
2022-12-18T22:08:15.767Z,14.98
2022-12-18T22:10:41.883Z,15.90
2022-12-18T22:13:08.021Z,14.88
2022-12-18T22:15:34.149Z,15.35
2022-12-18T22:18:00.665Z,16.00
2022-12-18T22:20:26.877Z,14.65
2022-12-18T22:22:53.025Z,15.13
2022-12-18T22:25:19.126Z,15.95
2022-12-18T22:27:45.237Z,15.73
2022-12-18T22:30:11.344Z,15.40
2022-12-18T22:32:37.483Z,15.32
2022-12-18T22:35:08.381Z,15.20
2022-12-18T22:37:38.981Z,16.27
2022-12-18T22:40:05.109Z,15.85
2022-12-18T22:42:32.190Z,14.77
2022-12-18T22:44:58.296Z,15.65
2022-12-18T22:47:29.436Z,14.90
2022-12-18T22:49:56.059Z,14.40
2022-12-18T22:52:22.165Z,14.50
2022-12-18T22:54:50.839Z,15.07
2022-12-18T22:57:19.583Z,15.65
2022-12-18T22:59:45.699Z,15.52
2022-12-18T23:02:11.880Z,16.10
2022-12-18T23:04:38.077Z,14.45
2022-12-18T23:07:04.191Z,15.00
2022-12-18T23:09:30.311Z,15.18
2022-12-18T23:11:56.504Z,14.45
2022-12-18T23:14:22.643Z,14.98
2022-12-18T23:16:48.739Z,15.38
2022-12-18T23:19:16.899Z,16.42
2022-12-18T23:21:43.013Z,15.27
2022-12-18T23:24:09.135Z,14.95
2022-12-18T23:26:35.252Z,14.70
2022-12-18T23:29:01.381Z,15.75
2022-12-18T23:31:27.549Z,15.27
2022-12-18T23:33:53.780Z,14.98
2022-12-18T23:36:20.136Z,15.15
2022-12-18T23:38:46.292Z,15.38
2022-12-18T23:41:12.438Z,15.98
2022-12-18T23:43:38.565Z,15.45
2022-12-18T23:46:04.690Z,15.43
2022-12-18T23:48:30.819Z,15.27
2022-12-18T23:50:56.952Z,16.17
2022-12-18T23:53:23.051Z,16.13
2022-12-18T23:55:49.175Z,14.57
2022-12-18T23:58:16.373Z,14.35
